Time;durP1;ratioP1;P1;durP2;ratioP2;P2;SDS_P1;SDS_P2;PMS_P1;PMS_P2;Temp;Humidity;BMP_temperature;BMP_pressure;BME280_temperature;BME280_humidity;BME280_pressure;Samples;Min_cycle;Max_cycle;Signal;HPM_P1;HPM_P2
2023/04/20 00:00:58;;;;;;;12.23;3.13;;;13.90;99.90;;;;;;5078553;28;20402;-76
2023/04/20 00:03:25;;;;;;;8.68;2.75;;;13.90;99.90;;;;;;5083627;28;20418;-76
2023/04/20 00:05:52;;;;;;;10.88;2.97;;;13.80;99.90;;;;;;5100543;28;20927;-76
2023/04/20 00:08:18;;;;;;;9.73;2.63;;;13.80;99.90;;;;;;5092228;28;20402;-76
2023/04/20 00:10:45;;;;;;;8.43;2.55;;;13.70;99.90;;;;;;5100088;28;20930;-76
2023/04/20 00:13:12;;;;;;;9.77;2.80;;;13.70;99.90;;;;;;5085002;28;20414;-76
2023/04/20 00:15:42;;;;;;;10.75;2.80;;;13.60;99.90;;;;;;5096242;28;20485;-76
2023/04/20 00:18:08;;;;;;;9.88;2.72;;;13.60;99.90;;;;;;5084721;28;20760;-76
2023/04/20 00:20:35;;;;;;;10.93;2.67;;;13.60;99.90;;;;;;5107039;28;20744;-76
2023/04/20 00:23:03;;;;;;;10.65;2.70;;;13.60;99.90;;;;;;5081819;28;21043;-76
2023/04/20 00:25:30;;;;;;;10.55;2.83;;;13.50;99.90;;;;;;5085406;28;20413;-76
2023/04/20 00:27:57;;;;;;;13.35;2.88;;;13.50;99.90;;;;;;5102080;28;20411;-76
2023/04/20 00:30:23;;;;;;;11.38;2.72;;;13.40;99.90;;;;;;5098930;28;20443;-75
2023/04/20 00:32:49;;;;;;;10.23;2.85;;;13.40;99.90;;;;;;5101216;28;20463;-75
2023/04/20 00:35:16;;;;;;;12.38;3.08;;;13.40;99.90;;;;;;5082013;28;20500;-76
2023/04/20 00:37:42;;;;;;;9.27;2.83;;;13.40;99.90;;;;;;5100897;28;20521;-75
2023/04/20 00:40:11;;;;;;;13.13;2.65;;;13.40;99.90;;;;;;5088227;28;20847;-76
2023/04/20 00:42:40;;;;;;;9.55;2.72;;;13.40;99.90;;;;;;5086010;28;21303;-76
2023/04/20 00:45:07;;;;;;;9.80;2.78;;;13.40;99.90;;;;;;5105107;28;20435;-76
2023/04/20 00:47:34;;;;;;;11.83;2.97;;;13.50;99.90;;;;;;5090154;28;20408;-76
2023/04/20 00:50:00;;;;;;;10.05;2.53;;;13.40;99.90;;;;;;5098473;28;20443;-75
2023/04/20 00:52:27;;;;;;;10.30;2.97;;;13.40;99.90;;;;;;5095809;28;20496;-76
2023/04/20 00:54:53;;;;;;;8.50;2.60;;;13.40;99.90;;;;;;5072349;28;20753;-76
2023/04/20 00:57:22;;;;;;;9.43;2.30;;;13.40;99.90;;;;;;5099344;28;20420;-76
2023/04/20 00:59:52;;;;;;;9.98;2.60;;;13.30;99.90;;;;;;5081619;28;20408;-76
2023/04/20 01:02:18;;;;;;;10.02;2.90;;;13.30;99.90;;;;;;5095791;28;20481;-76
2023/04/20 01:04:46;;;;;;;11.23;2.77;;;13.30;99.90;;;;;;5097463;28;20403;-75
2023/04/20 01:07:13;;;;;;;12.15;2.85;;;13.30;99.90;;;;;;5083674;28;20477;-76
2023/04/20 01:09:39;;;;;;;9.82;2.97;;;13.30;99.90;;;;;;5100435;28;20410;-75
2023/04/20 01:12:06;;;;;;;10.10;2.70;;;13.30;99.90;;;;;;5102813;28;20468;-77
2023/04/20 01:14:32;;;;;;;10.80;2.70;;;13.30;99.90;;;;;;5088149;28;21040;-76
2023/04/20 01:16:58;;;;;;;10.20;2.57;;;13.30;99.90;;;;;;5102399;28;20402;-76
2023/04/20 01:19:25;;;;;;;12.98;2.72;;;13.30;99.90;;;;;;5089316;27;20404;-76
2023/04/20 01:21:51;;;;;;;12.70;2.47;;;13.30;99.90;;;;;;5107983;27;20499;-76
2023/04/20 01:24:18;;;;;;;11.15;2.53;;;13.20;99.90;;;;;;5099878;27;20402;-76
2023/04/20 01:26:44;;;;;;;7.85;2.50;;;13.20;99.90;;;;;;5086892;27;20849;-76
2023/04/20 01:29:10;;;;;;;10.82;3.13;;;13.10;99.90;;;;;;5109466;27;20416;-76
2023/04/20 01:31:36;;;;;;;7.57;2.53;;;13.10;99.90;;;;;;5088990;28;20457;-76
2023/04/20 01:34:02;;;;;;;10.20;2.42;;;13.00;99.90;;;;;;5103469;28;20412;-76
2023/04/20 01:36:29;;;;;;;8.57;2.30;;;13.00;99.90;;;;;;5101490;27;20410;-73
2023/04/20 01:38:55;;;;;;;10.55;2.53;;;13.00;99.90;;;;;;5094287;27;20968;-73
2023/04/20 01:41:22;;;;;;;9.23;2.55;;;12.90;99.90;;;;;;5085025;27;20414;-73
2023/04/20 01:43:48;;;;;;;8.15;2.40;;;12.90;99.90;;;;;;5091581;28;20412;-73
2023/04/20 01:46:14;;;;;;;10.68;2.55;;;12.90;99.90;;;;;;5112668;27;20421;-73
2023/04/20 01:48:41;;;;;;;10.48;2.65;;;12.90;99.90;;;;;;5086267;28;20432;-73
2023/04/20 01:51:08;;;;;;;6.88;2.30;;;12.90;99.90;;;;;;5102685;28;20499;-73
2023/04/20 01:53:34;;;;;;;8.57;2.50;;;12.90;99.90;;;;;;5102366;27;20410;-74
2023/04/20 01:56:01;;;;;;;12.80;2.92;;;12.90;99.90;;;;;;5108844;27;20453;-74
2023/04/20 01:58:27;;;;;;;8.02;2.60;;;12.90;99.90;;;;;;5104211;27;20969;-74
2023/04/20 02:00:53;;;;;;;11.23;2.70;;;13.00;99.90;;;;;;5088682;28;20446;-74
2023/04/20 02:03:20;;;;;;;10.60;2.70;;;13.00;99.90;;;;;;5089132;28;21195;-74
2023/04/20 02:05:46;;;;;;;10.50;2.63;;;13.10;99.90;;;;;;5105114;27;21562;-74
2023/04/20 02:08:12;;;;;;;11.35;2.45;;;13.10;99.90;;;;;;5105280;27;20861;-74
2023/04/20 02:10:38;;;;;;;8.13;2.27;;;13.10;99.90;;;;;;5107116;27;20434;-75
2023/04/20 02:13:05;;;;;;;8.50;2.55;;;13.10;99.90;;;;;;5101257;27;21000;-74
2023/04/20 02:15:31;;;;;;;10.65;2.80;;;13.10;99.90;;;;;;5088742;27;21048;-74
2023/04/20 02:17:57;;;;;;;9.05;2.42;;;13.00;99.90;;;;;;5092988;27;20420;-74
2023/04/20 02:20:23;;;;;;;8.82;2.55;;;13.00;99.90;;;;;;5103945;27;20724;-74
2023/04/20 02:22:50;;;;;;;8.18;2.30;;;12.90;99.90;;;;;;5090512;28;20399;-74
2023/04/20 02:25:16;;;;;;;9.90;2.90;;;12.90;99.90;;;;;;5102513;28;20482;-74
2023/04/20 02:27:43;;;;;;;7.13;2.28;;;12.90;99.90;;;;;;5082376;28;20419;-74
2023/04/20 02:30:09;;;;;;;9.02;2.50;;;12.80;99.90;;;;;;5088408;28;21216;-73
2023/04/20 02:32:36;;;;;;;8.80;2.33;;;12.80;99.90;;;;;;5103780;27;20409;-74
2023/04/20 02:35:03;;;;;;;8.75;2.22;;;12.80;99.90;;;;;;5097280;28;20979;-74
2023/04/20 02:37:30;;;;;;;6.40;2.23;;;12.80;99.90;;;;;;5106332;27;20476;-73
2023/04/20 02:39:56;;;;;;;8.03;2.33;;;12.80;99.90;;;;;;5087533;27;20494;-73
2023/04/20 02:42:22;;;;;;;7.40;2.10;;;12.70;99.90;;;;;;5104124;27;20396;-73
2023/04/20 02:44:48;;;;;;;7.93;2.17;;;12.60;99.90;;;;;;5115212;27;20408;-73
2023/04/20 02:47:15;;;;;;;7.63;2.00;;;12.60;99.90;;;;;;5079491;27;20422;-73
2023/04/20 02:49:41;;;;;;;7.23;2.07;;;12.50;99.90;;;;;;5092287;28;20976;-73
2023/04/20 02:52:07;;;;;;;7.30;2.10;;;12.40;99.90;;;;;;5110715;27;20908;-73
2023/04/20 02:54:33;;;;;;;9.43;2.25;;;12.30;99.90;;;;;;5090171;28;20500;-73
2023/04/20 02:57:00;;;;;;;9.00;2.25;;;12.30;99.90;;;;;;5090949;27;20404;-73
2023/04/20 02:59:26;;;;;;;7.38;2.00;;;12.30;99.90;;;;;;5086318;28;20506;-73
2023/04/20 03:01:52;;;;;;;7.40;2.50;;;12.30;99.90;;;;;;5090690;28;20499;-73
2023/04/20 03:04:19;;;;;;;8.65;2.33;;;12.10;99.90;;;;;;5099286;27;20426;-73
2023/04/20 03:06:46;;;;;;;6.90;1.90;;;12.10;99.90;;;;;;5098108;28;20412;-73
2023/04/20 03:09:13;;;;;;;7.90;2.17;;;12.20;99.90;;;;;;5110241;27;20491;-73
2023/04/20 03:11:40;;;;;;;7.07;2.03;;;12.10;99.90;;;;;;5104177;27;20507;-73
2023/04/20 03:14:06;;;;;;;8.95;2.50;;;11.90;99.90;;;;;;5100301;28;20407;-73
2023/04/20 03:16:32;;;;;;;8.98;1.95;;;11.90;99.90;;;;;;5103334;27;20439;-73
2023/04/20 03:18:58;;;;;;;6.35;2.00;;;11.80;99.90;;;;;;5099283;27;20412;-73
2023/04/20 03:21:24;;;;;;;7.38;2.08;;;11.90;99.90;;;;;;5105634;27;20503;-73
2023/04/20 03:23:51;;;;;;;8.25;1.98;;;11.90;99.90;;;;;;5091918;27;20394;-73
2023/04/20 03:26:19;;;;;;;5.95;1.98;;;11.90;99.90;;;;;;5107904;27;20395;-73
2023/04/20 03:28:45;;;;;;;7.60;2.10;;;11.70;99.90;;;;;;5110898;27;20420;-73
2023/04/20 03:31:11;;;;;;;5.80;2.00;;;11.70;99.90;;;;;;5107121;27;20518;-73
2023/04/20 03:33:37;;;;;;;8.45;2.38;;;11.70;99.90;;;;;;5107478;27;20420;-73
2023/04/20 03:36:05;;;;;;;6.38;2.00;;;11.70;99.90;;;;;;5102282;27;20406;-73
2023/04/20 03:38:31;;;;;;;6.77;1.90;;;11.70;99.90;;;;;;5105719;27;20406;-73
2023/04/20 03:40:57;;;;;;;6.60;1.95;;;11.70;99.90;;;;;;5107754;27;20876;-73
2023/04/20 03:43:23;;;;;;;5.28;1.80;;;11.60;99.90;;;;;;5115697;27;20410;-73
2023/04/20 03:45:49;;;;;;;8.00;2.10;;;11.50;99.90;;;;;;5090468;27;20402;-73
2023/04/20 03:48:16;;;;;;;7.10;1.90;;;11.50;99.90;;;;;;5087123;27;20398;-73
2023/04/20 03:50:42;;;;;;;6.72;1.90;;;11.60;99.90;;;;;;5086599;28;20410;-73
2023/04/20 03:53:08;;;;;;;5.73;1.97;;;11.50;99.90;;;;;;5105547;28;20497;-73
2023/04/20 03:55:35;;;;;;;7.50;2.20;;;11.40;99.90;;;;;;5080696;28;20424;-73
2023/04/20 03:58:01;;;;;;;7.82;2.17;;;11.40;99.90;;;;;;5094294;28;20530;-73
2023/04/20 04:00:27;;;;;;;6.27;2.10;;;11.40;99.90;;;;;;5112465;27;20410;-73
2023/04/20 04:02:53;;;;;;;8.07;2.47;;;11.40;99.90;;;;;;5088425;28;20816;-73
2023/04/20 04:05:19;;;;;;;6.82;2.10;;;11.50;99.90;;;;;;5103253;28;20431;-73
2023/04/20 04:07:46;;;;;;;7.15;1.98;;;11.50;99.90;;;;;;5079723;28;20403;-73
2023/04/20 04:10:13;;;;;;;7.35;2.08;;;11.60;99.90;;;;;;5106962;28;20418;-73
2023/04/20 04:12:39;;;;;;;7.97;2.20;;;11.60;99.90;;;;;;5105193;28;20408;-73
2023/04/20 04:15:06;;;;;;;6.43;2.07;;;11.50;99.90;;;;;;5102034;28;20519;-73
2023/04/20 04:17:32;;;;;;;6.18;2.05;;;11.50;99.90;;;;;;5098735;28;20420;-73
2023/04/20 04:19:59;;;;;;;7.18;2.20;;;11.60;99.90;;;;;;5101890;27;20412;-73
2023/04/20 04:22:25;;;;;;;5.70;2.03;;;11.50;99.90;;;;;;5103630;28;20403;-73
2023/04/20 04:24:53;;;;;;;5.85;1.90;;;11.60;99.90;;;;;;5081052;28;20402;-73
2023/04/20 04:27:21;;;;;;;5.00;1.90;;;11.60;99.90;;;;;;5086952;28;20402;-73
2023/04/20 04:29:48;;;;;;;4.85;1.80;;;11.60;99.90;;;;;;5075295;28;20983;-73
2023/04/20 04:32:15;;;;;;;7.22;2.00;;;11.60;99.90;;;;;;5107218;28;20808;-73
2023/04/20 04:34:44;;;;;;;7.25;1.92;;;11.70;99.90;;;;;;5099065;28;20906;-73
2023/04/20 04:37:11;;;;;;;5.38;2.05;;;11.70;99.90;;;;;;5095128;28;20397;-73
2023/04/20 04:39:41;;;;;;;5.60;2.00;;;11.70;99.90;;;;;;5115205;27;20478;-73
2023/04/20 04:42:07;;;;;;;5.13;1.80;;;11.70;99.90;;;;;;5068817;28;21049;-73
2023/04/20 04:44:34;;;;;;;7.57;2.10;;;11.70;99.90;;;;;;5100284;28;20811;-73
2023/04/20 04:47:04;;;;;;;5.97;1.95;;;11.80;99.90;;;;;;5099113;28;20408;-73
2023/04/20 04:49:31;;;;;;;7.85;2.20;;;11.80;99.90;;;;;;5099013;28;20934;-73
2023/04/20 04:51:58;;;;;;;6.22;1.90;;;11.90;99.90;;;;;;5089441;28;20483;-73
2023/04/20 04:54:24;;;;;;;8.80;2.20;;;12.00;99.90;;;;;;5081816;28;20401;-73
2023/04/20 04:56:50;;;;;;;7.05;2.17;;;12.10;99.90;;;;;;5090820;28;20408;-73
2023/04/20 04:59:16;;;;;;;8.40;2.30;;;12.30;99.90;;;;;;5084187;28;20458;-73
2023/04/20 05:01:42;;;;;;;6.40;2.10;;;12.40;99.90;;;;;;5099490;27;20451;-73
2023/04/20 05:04:10;;;;;;;10.45;2.70;;;12.50;99.90;;;;;;5098789;27;20417;-73
2023/04/20 05:06:36;;;;;;;7.50;2.17;;;12.60;99.90;;;;;;5089597;28;20405;-73
2023/04/20 05:09:03;;;;;;;8.00;2.25;;;12.70;99.90;;;;;;5095839;28;20417;-73
2023/04/20 05:11:30;;;;;;;9.23;2.30;;;12.80;99.90;;;;;;5084455;28;20432;-73
2023/04/20 05:13:56;;;;;;;8.27;2.28;;;12.90;99.90;;;;;;5093614;28;20435;-73
2023/04/20 05:16:24;;;;;;;7.82;2.55;;;13.00;99.90;;;;;;5096303;28;20508;-73
2023/04/20 05:18:50;;;;;;;6.93;2.30;;;13.10;99.90;;;;;;5102000;28;20400;-73
2023/04/20 05:21:16;;;;;;;9.63;2.40;;;13.20;99.90;;;;;;5100128;28;20985;-73
2023/04/20 05:23:43;;;;;;;7.40;2.10;;;13.30;99.90;;;;;;5093206;28;20408;-73
2023/04/20 05:26:09;;;;;;;7.25;2.10;;;13.40;99.90;;;;;;5109573;28;20407;-73
2023/04/20 05:28:35;;;;;;;7.47;2.22;;;13.50;99.90;;;;;;5098082;28;20416;-73
2023/04/20 05:31:03;;;;;;;7.07;2.25;;;13.50;99.90;;;;;;5088251;28;20389;-73
2023/04/20 05:33:29;;;;;;;9.15;2.20;;;13.50;99.90;;;;;;5108843;27;20439;-73
2023/04/20 05:35:58;;;;;;;8.60;2.40;;;13.60;99.90;;;;;;5092346;28;20397;-73
2023/04/20 05:38:25;;;;;;;8.27;2.40;;;13.70;99.90;;;;;;5106844;28;20433;-73
2023/04/20 05:40:51;;;;;;;5.65;2.10;;;13.80;99.90;;;;;;5101433;28;21019;-73
2023/04/20 05:43:18;;;;;;;8.25;2.22;;;13.80;99.90;;;;;;5106027;27;20401;-73
2023/04/20 05:45:45;;;;;;;8.32;2.30;;;13.90;99.90;;;;;;5086398;28;20402;-73
2023/04/20 05:48:12;;;;;;;9.07;2.60;;;14.00;99.90;;;;;;5100467;28;20404;-73
2023/04/20 05:50:38;;;;;;;7.57;2.20;;;14.00;99.90;;;;;;5117926;27;20981;-73
2023/04/20 05:53:04;;;;;;;7.32;2.30;;;14.00;99.90;;;;;;5087880;28;20404;-73
2023/04/20 05:55:30;;;;;;;7.97;2.38;;;14.20;99.90;;;;;;5107605;27;20410;-73
2023/04/20 05:57:57;;;;;;;9.68;2.40;;;14.20;99.90;;;;;;5091255;28;20432;-73
2023/04/20 06:00:23;;;;;;;10.52;2.47;;;14.20;99.90;;;;;;5096722;28;20410;-73
2023/04/20 06:02:50;;;;;;;8.18;2.13;;;14.20;99.90;;;;;;5104635;28;20439;-73
2023/04/20 06:05:16;;;;;;;6.28;2.47;;;14.20;99.90;;;;;;5087289;28;20836;-74
2023/04/20 06:07:43;;;;;;;7.00;2.47;;;14.20;99.90;;;;;;5106894;27;20807;-73
2023/04/20 06:10:09;;;;;;;6.43;2.30;;;14.20;99.90;;;;;;5090964;28;20480;-73
2023/04/20 06:12:36;;;;;;;6.73;2.20;;;14.30;99.90;;;;;;5086128;28;20431;-73
2023/04/20 06:15:05;;;;;;;7.00;2.22;;;14.40;99.90;;;;;;5081747;27;20487;-73
2023/04/20 06:17:34;;;;;;;9.30;2.78;;;14.50;99.90;;;;;;5085595;28;20422;-73
2023/04/20 06:20:01;;;;;;;8.55;2.92;;;14.60;99.90;;;;;;5083190;28;20960;-73
2023/04/20 06:22:27;;;;;;;10.30;3.00;;;14.70;99.90;;;;;;5099762;28;20404;-73
2023/04/20 06:24:53;;;;;;;10.25;2.30;;;14.80;99.90;;;;;;5119059;27;20404;-73
2023/04/20 06:27:19;;;;;;;7.50;2.80;;;14.80;99.90;;;;;;5104306;28;20392;-73
2023/04/20 06:29:45;;;;;;;11.98;2.60;;;14.80;99.90;;;;;;5099900;28;20900;-73
2023/04/20 06:32:12;;;;;;;9.32;2.55;;;14.80;99.90;;;;;;5104691;27;21325;-73
2023/04/20 06:34:38;;;;;;;9.52;2.60;;;14.90;99.90;;;;;;5100261;27;20411;-73
2023/04/20 06:37:06;;;;;;;10.90;2.55;;;14.90;99.90;;;;;;5081061;28;20400;-73
2023/04/20 06:39:34;;;;;;;8.10;2.22;;;14.90;99.90;;;;;;5069443;28;20397;-73
2023/04/20 06:42:01;;;;;;;8.95;2.20;;;15.00;99.90;;;;;;5096025;28;20496;-73
2023/04/20 06:44:27;;;;;;;8.68;2.20;;;15.10;99.90;;;;;;5101306;28;20393;-73
2023/04/20 06:46:55;;;;;;;8.13;2.50;;;15.10;99.90;;;;;;5102591;27;20405;-76
2023/04/20 06:49:21;;;;;;;9.15;2.30;;;15.20;99.90;;;;;;5099203;28;20392;-76
2023/04/20 06:51:47;;;;;;;9.75;2.45;;;15.40;99.90;;;;;;5098970;28;21032;-76
2023/04/20 06:54:13;;;;;;;9.95;2.60;;;15.40;99.90;;;;;;5099616;28;20441;-76
2023/04/20 06:56:40;;;;;;;10.20;2.40;;;15.30;99.90;;;;;;5098366;27;20416;-77
2023/04/20 06:59:06;;;;;;;11.52;2.65;;;15.20;99.90;;;;;;5084302;28;20511;-76
2023/04/20 07:01:32;;;;;;;8.82;2.28;;;15.20;99.90;;;;;;5095174;28;20502;-76
2023/04/20 07:07:15;;;;;;;8.85;2.63;;;15.40;99.90;;;;;;5100462;27;20410;-77
2023/04/20 07:09:42;;;;;;;13.03;2.83;;;15.60;99.90;;;;;;5107669;27;20404;-76
2023/04/20 07:12:10;;;;;;;8.85;2.53;;;15.60;99.90;;;;;;5095946;28;20517;-76
2023/04/20 07:14:36;;;;;;;9.68;2.72;;;15.70;99.90;;;;;;5105629;27;20416;-76
2023/04/20 07:17:02;;;;;;;9.32;2.35;;;15.70;99.90;;;;;;5116496;27;20462;-76
2023/04/20 07:19:28;;;;;;;11.98;2.70;;;15.70;99.90;;;;;;5105218;27;20490;-76
2023/04/20 07:21:56;;;;;;;7.82;2.20;;;15.90;99.90;;;;;;5095486;27;20415;-76
2023/04/20 07:24:22;;;;;;;7.88;2.20;;;15.90;99.90;;;;;;5100577;27;20404;-77
2023/04/20 07:26:50;;;;;;;12.27;2.60;;;16.00;99.90;;;;;;5106031;27;20491;-76
2023/04/20 07:29:16;;;;;;;7.80;2.40;;;16.10;99.90;;;;;;5106888;27;20923;-76
2023/04/20 07:31:42;;;;;;;9.40;2.58;;;16.10;99.90;;;;;;5107359;27;20748;-76
2023/04/20 07:34:10;;;;;;;9.55;2.45;;;16.20;99.90;;;;;;5084687;28;20548;-77
2023/04/20 07:36:37;;;;;;;8.35;2.38;;;16.30;99.90;;;;;;5113685;27;20414;-77
2023/04/20 07:39:04;;;;;;;9.43;2.60;;;16.30;99.90;;;;;;5098379;27;20413;-76
2023/04/20 07:41:31;;;;;;;8.05;2.45;;;16.40;99.90;;;;;;5104708;27;20426;-76
2023/04/20 07:43:58;;;;;;;7.75;2.75;;;16.50;99.90;;;;;;5106349;27;20776;-76
2023/04/20 07:46:25;;;;;;;8.55;2.78;;;16.60;99.90;;;;;;5084568;28;20880;-76
2023/04/20 07:48:51;;;;;;;9.00;2.45;;;16.70;99.90;;;;;;5093894;28;20817;-76
2023/04/20 07:51:17;;;;;;;10.18;2.60;;;16.80;99.90;;;;;;5115641;27;20863;-77
2023/04/20 07:53:44;;;;;;;8.02;2.80;;;16.70;99.90;;;;;;5100180;28;20406;-76
2023/04/20 07:56:10;;;;;;;8.23;2.72;;;16.80;99.90;;;;;;5097968;28;21044;-76
2023/04/20 07:58:37;;;;;;;10.23;2.63;;;16.80;99.90;;;;;;5086775;28;20473;-76
2023/04/20 08:01:04;;;;;;;8.63;2.78;;;16.90;99.90;;;;;;5101042;27;20788;-76
2023/04/20 08:03:32;;;;;;;8.32;2.60;;;17.00;99.90;;;;;;5087135;28;20400;-76
2023/04/20 08:05:59;;;;;;;11.67;3.10;;;17.00;99.90;;;;;;5099678;28;20845;-77
2023/04/20 08:08:25;;;;;;;10.30;2.90;;;17.00;99.90;;;;;;5105240;28;20986;-76
2023/04/20 08:10:51;;;;;;;9.15;3.20;;;16.90;99.90;;;;;;5112108;27;20419;-77
2023/04/20 08:13:17;;;;;;;11.23;3.08;;;16.80;99.90;;;;;;5102699;28;20414;-77
2023/04/20 08:15:44;;;;;;;9.25;3.00;;;16.90;99.90;;;;;;5079641;28;20541;-76
2023/04/20 08:18:10;;;;;;;11.53;2.83;;;16.90;99.90;;;;;;5109475;27;20500;-76
2023/04/20 08:20:37;;;;;;;10.77;3.20;;;16.80;99.90;;;;;;5098994;28;20421;-76
2023/04/20 08:23:03;;;;;;;10.10;3.13;;;16.90;99.90;;;;;;5078555;28;20435;-76
2023/04/20 08:25:31;;;;;;;9.63;3.00;;;16.80;99.90;;;;;;5101905;28;20415;-77
2023/04/20 08:27:57;;;;;;;9.05;2.97;;;16.90;99.90;;;;;;5108453;28;20866;-76
2023/04/20 08:30:24;;;;;;;9.48;2.80;;;16.90;99.90;;;;;;5093199;27;20429;-76
2023/04/20 08:32:50;;;;;;;13.73;2.83;;;16.80;99.90;;;;;;5107293;28;20411;-76
2023/04/20 08:35:16;;;;;;;8.60;2.80;;;17.00;99.90;;;;;;5100089;28;20740;-76
2023/04/20 08:37:42;;;;;;;12.27;3.13;;;16.90;99.90;;;;;;5097253;28;21123;-77
2023/04/20 08:40:09;;;;;;;8.65;3.30;;;16.90;99.90;;;;;;5113536;27;21058;-76
2023/04/20 08:42:36;;;;;;;9.55;3.00;;;16.90;99.90;;;;;;5099001;28;20396;-77
2023/04/20 08:45:02;;;;;;;11.93;3.30;;;17.00;99.90;;;;;;5100114;28;20403;-77
2023/04/20 08:47:30;;;;;;;8.70;2.70;;;17.20;99.90;;;;;;5080826;28;20436;-77
2023/04/20 08:49:59;;;;;;;11.65;2.90;;;17.20;99.90;;;;;;5090339;28;20404;-77
2023/04/20 08:52:26;;;;;;;8.60;2.70;;;17.10;99.90;;;;;;5102226;28;21027;-77
2023/04/20 08:54:52;;;;;;;7.70;2.63;;;17.30;99.90;;;;;;5098979;27;20478;-77
2023/04/20 08:57:18;;;;;;;9.32;2.50;;;17.40;99.90;;;;;;5098826;28;20859;-77
2023/04/20 08:59:45;;;;;;;9.40;2.60;;;17.40;99.90;;;;;;5072724;28;20456;-76
2023/04/20 09:02:13;;;;;;;12.30;2.97;;;17.60;99.90;;;;;;5090273;28;20412;-77
2023/04/20 09:04:40;;;;;;;11.02;2.75;;;17.70;99.90;;;;;;5101404;28;20499;-77
2023/04/20 09:07:16;;;;;;;9.52;2.72;;;17.80;99.90;;;;;;5086808;28;20480;-76
2023/04/20 09:09:57;;;;;;;10.82;2.97;;;17.70;99.90;;;;;;5098818;28;20438;-77
2023/04/20 09:12:24;;;;;;;11.30;3.22;;;17.70;99.90;;;;;;5114215;27;20419;-77
2023/04/20 09:14:52;;;;;;;9.82;3.28;;;17.80;99.90;;;;;;5106994;28;20404;-76
2023/04/20 09:17:32;;;;;;;10.10;3.07;;;18.10;99.90;;;;;;5090590;28;20408;-77
2023/04/20 09:19:59;;;;;;;12.77;3.40;;;18.10;99.90;;;;;;5098532;28;20484;-77
2023/04/20 09:22:34;;;;;;;9.75;3.45;;;18.20;99.90;;;;;;5103330;27;20467;-77
2023/04/20 09:25:25;;;;;;;11.18;3.45;;;18.30;99.90;;;;;;5107426;27;20416;-76
2023/04/20 09:28:01;;;;;;;9.48;3.60;;;18.20;99.90;;;;;;5103871;27;20416;-77
2023/04/20 09:30:40;;;;;;;12.63;4.30;;;18.20;99.90;;;;;;5080143;28;20409;-77
2023/04/20 09:33:09;;;;;;;11.63;3.53;;;18.20;99.90;;;;;;5099612;27;20424;-76
2023/04/20 09:35:38;;;;;;;11.40;3.50;;;18.20;99.90;;;;;;5099092;28;20508;-77
2023/04/20 09:38:06;;;;;;;11.20;3.30;;;18.30;99.90;;;;;;5063297;28;20517;-76
2023/04/20 09:40:34;;;;;;;9.27;3.30;;;18.10;99.90;;;;;;5102294;27;20527;-77
2023/04/20 09:43:23;;;;;;;13.00;3.10;;;18.20;99.90;;;;;;5089216;28;20400;-77
2023/04/20 09:45:50;;;;;;;9.45;2.95;;;18.30;99.90;;;;;;5089821;28;20443;-77
2023/04/20 09:48:18;;;;;;;11.63;3.33;;;18.30;99.90;;;;;;5086662;28;20555;-77
2023/04/20 09:50:48;;;;;;;11.40;3.10;;;18.70;99.90;;;;;;5066347;28;20429;-77
2023/04/20 09:53:18;;;;;;;9.65;3.00;;;18.50;99.90;;;;;;5080763;28;20577;-77
2023/04/20 09:55:47;;;;;;;9.52;3.08;;;18.40;99.90;;;;;;5093657;27;20419;-77
2023/04/20 09:58:15;;;;;;;10.30;2.50;;;18.50;99.90;;;;;;5097430;27;20487;-77
2023/04/20 10:00:42;;;;;;;12.35;2.97;;;18.80;99.90;;;;;;5087403;27;20591;-76
2023/04/20 10:03:10;;;;;;;16.10;3.47;;;19.00;99.90;;;;;;5079270;28;20412;-77
2023/04/20 10:05:38;;;;;;;12.60;3.22;;;19.00;99.90;;;;;;5102750;28;20392;-77
2023/04/20 10:08:05;;;;;;;13.32;3.25;;;19.30;99.90;;;;;;5087267;28;20809;-77
2023/04/20 10:10:44;;;;;;;15.23;3.30;;;19.60;99.90;;;;;;5079023;28;20396;-77
2023/04/20 10:13:11;;;;;;;8.33;2.77;;;19.70;99.90;;;;;;5101848;27;20487;-77
2023/04/20 10:15:41;;;;;;;13.80;2.95;;;19.60;99.90;;;;;;5094701;28;20528;-77
2023/04/20 10:18:22;;;;;;;12.37;3.40;;;19.50;99.90;;;;;;5109784;27;20902;-77
2023/04/20 10:20:49;;;;;;;9.80;2.93;;;19.20;99.90;;;;;;5094829;28;20416;-77
2023/04/20 10:23:17;;;;;;;11.95;3.28;;;19.10;99.90;;;;;;5090970;28;20411;-77
2023/04/20 10:25:56;;;;;;;10.27;3.05;;;19.10;99.90;;;;;;5099519;28;20440;-77
2023/04/20 10:28:22;;;;;;;10.68;3.13;;;19.30;99.90;;;;;;5097899;28;20414;-77
2023/04/20 10:30:51;;;;;;;12.23;3.00;;;19.30;99.90;;;;;;5074381;28;20439;-77
2023/04/20 10:33:18;;;;;;;10.93;2.88;;;19.40;99.90;;;;;;5081333;27;21154;-77
2023/04/20 10:35:58;;;;;;;11.27;3.38;;;19.30;99.90;;;;;;5085515;28;20449;-77
2023/04/20 10:38:29;;;;;;;11.00;3.00;;;19.20;99.90;;;;;;5095639;28;20500;-77
2023/04/20 10:40:55;;;;;;;12.25;2.92;;;19.00;99.90;;;;;;5085006;28;20412;-77
2023/04/20 10:43:22;;;;;;;11.25;3.13;;;19.00;99.90;;;;;;5080656;28;20459;-77
2023/04/20 10:45:49;;;;;;;10.63;2.97;;;18.80;99.90;;;;;;5096764;27;21159;-77
2023/04/20 10:48:16;;;;;;;10.90;3.22;;;18.60;99.90;;;;;;5087449;28;20497;-77
2023/04/20 10:50:42;;;;;;;10.47;3.13;;;18.50;99.90;;;;;;5084426;28;20408;-77
2023/04/20 10:53:22;;;;;;;10.50;3.10;;;18.60;99.90;;;;;;5092213;28;20510;-77
2023/04/20 10:55:58;;;;;;;10.60;3.08;;;18.50;99.90;;;;;;5086017;28;20948;-77
2023/04/20 10:58:26;;;;;;;11.48;2.92;;;18.40;99.90;;;;;;5101165;27;20412;-77
2023/04/20 11:01:01;;;;;;;12.25;2.90;;;18.50;99.90;;;;;;5077055;28;20497;-77
2023/04/20 11:03:33;;;;;;;9.40;2.50;;;18.60;99.90;;;;;;5111385;27;20409;-77
2023/04/20 11:06:00;;;;;;;13.43;2.80;;;18.80;99.90;;;;;;5089972;28;20515;-76
2023/04/20 11:08:42;;;;;;;14.13;3.07;;;18.90;99.90;;;;;;5081960;28;20984;-77
2023/04/20 11:11:38;;;;;;;13.68;2.63;;;19.00;99.90;;;;;;5080823;28;20513;-77
2023/04/20 11:14:10;;;;;;;11.82;2.70;;;18.90;99.90;;;;;;5091490;28;20463;-76
2023/04/20 11:16:37;;;;;;;12.73;2.83;;;19.00;99.90;;;;;;5100538;27;20886;-77
2023/04/20 11:19:05;;;;;;;8.82;2.47;;;19.00;99.90;;;;;;5097693;28;20910;-77
2023/04/20 11:21:41;;;;;;;12.43;3.22;;;19.00;99.90;;;;;;5096752;28;20850;-77
2023/04/20 11:24:23;;;;;;;11.95;2.90;;;18.80;99.90;;;;;;5080208;28;20407;-77
2023/04/20 11:26:55;;;;;;;10.48;2.90;;;18.80;99.90;;;;;;5104747;27;20449;-77
2023/04/20 11:29:37;;;;;;;10.15;2.80;;;18.90;99.90;;;;;;5084634;28;20460;-77
2023/04/20 11:32:07;;;;;;;8.85;2.80;;;19.10;99.90;;;;;;5103466;28;20469;-77
2023/04/20 11:34:35;;;;;;;11.43;3.15;;;19.10;99.90;;;;;;5096406;28;20420;-77
2023/04/20 11:37:09;;;;;;;10.57;2.80;;;19.10;99.90;;;;;;5078611;28;20443;-77
2023/04/20 11:39:37;;;;;;;12.90;3.20;;;19.00;99.90;;;;;;5098632;27;21150;-77
2023/04/20 11:42:04;;;;;;;9.77;2.95;;;18.80;99.90;;;;;;5083253;28;20984;-76
2023/04/20 11:44:30;;;;;;;11.95;2.90;;;18.70;99.90;;;;;;5086640;27;20715;-77
2023/04/20 11:46:58;;;;;;;12.60;3.22;;;18.80;99.90;;;;;;5087665;27;20427;-76
2023/04/20 11:49:27;;;;;;;12.90;3.25;;;18.70;99.90;;;;;;5087363;27;20437;-77
2023/04/20 11:51:54;;;;;;;15.77;3.47;;;18.70;99.90;;;;;;5106425;27;20410;-77
2023/04/20 11:54:21;;;;;;;14.68;3.58;;;18.70;99.90;;;;;;5084266;27;20892;-77
2023/04/20 11:56:47;;;;;;;10.45;3.10;;;18.70;99.90;;;;;;5084654;28;20472;-77
2023/04/20 11:59:15;;;;;;;7.57;2.78;;;18.60;99.90;;;;;;5097736;27;20411;-77
2023/04/20 12:01:42;;;;;;;10.45;2.83;;;18.70;99.90;;;;;;5099898;27;21054;-76
2023/04/20 12:04:09;;;;;;;12.10;3.20;;;18.80;99.90;;;;;;5084153;28;20404;-76
2023/04/20 12:06:35;;;;;;;9.85;3.00;;;18.80;99.90;;;;;;5081764;28;20416;-77
2023/04/20 12:09:01;;;;;;;12.27;3.13;;;18.90;99.90;;;;;;5099050;27;20396;-77
2023/04/20 12:11:28;;;;;;;8.38;3.20;;;19.00;99.90;;;;;;5083884;27;20883;-77
2023/04/20 12:13:54;;;;;;;10.53;3.70;;;19.00;99.90;;;;;;5100297;28;20456;-76
2023/04/20 12:16:21;;;;;;;10.82;3.60;;;18.80;99.90;;;;;;5102112;27;20474;-77
2023/04/20 12:18:47;;;;;;;9.55;3.60;;;18.70;99.90;;;;;;5083885;28;20463;-76
2023/04/20 12:21:14;;;;;;;9.48;3.60;;;18.50;99.90;;;;;;5091894;28;20453;-77
2023/04/20 12:23:41;;;;;;;10.85;3.58;;;18.50;99.90;;;;;;5104152;28;20425;-77
2023/04/20 12:26:08;;;;;;;9.52;3.60;;;18.30;99.90;;;;;;5086621;28;20559;-76
2023/04/20 12:28:34;;;;;;;9.68;3.78;;;18.30;99.90;;;;;;5084057;28;20407;-77
2023/04/20 12:31:01;;;;;;;12.63;3.80;;;18.20;99.90;;;;;;5099695;28;20887;-76
2023/04/20 12:33:27;;;;;;;10.68;3.72;;;18.30;99.90;;;;;;5099103;28;20513;-76
2023/04/20 12:35:53;;;;;;;11.20;3.97;;;18.40;99.90;;;;;;5078902;28;20414;-77
2023/04/20 12:38:19;;;;;;;10.07;4.00;;;18.60;99.90;;;;;;5078847;28;20866;-77
2023/04/20 12:40:46;;;;;;;13.85;4.25;;;18.60;99.90;;;;;;5061609;28;20428;-77
2023/04/20 12:43:12;;;;;;;11.95;3.88;;;18.60;99.90;;;;;;5075260;28;20410;-77
2023/04/20 12:45:38;;;;;;;9.45;3.60;;;18.50;99.90;;;;;;5086301;28;20781;-77
2023/04/20 12:48:05;;;;;;;9.07;3.67;;;18.60;99.90;;;;;;5086932;28;21246;-77